Etusivu
METAR-TAF:

METAR-TAF

Lentoasemat :

Teheran, Iran

Leveyspiiri: 35-41N, Pituuspiiri: 051-21E, korkeus merenpinnasta: 1204 m

Tämänhetkinen sää

Tämä raportti tehtiin 36 minuuttia sitten, kello 23.30 UTC
Tuuli 4 kn luoteesta
Lämpötila 20°C
Kosteus 46%
Ilmanpaine 1012 hPa
Näkyvyys 10 km tai enemmän
ei pilviä alle 1500 m:ssä eikä cumulonimbus-pilviä

METAR: OIII 232330Z 32004KT CAVOK 20/08 Q1011 A2988 NOSIG

Aika: 04:36 (00:06 UTC)

Sääennuste

Tämä raportti tehtiin 6 tuntia ja 36 minuuttia sitten, kello 17.30 UTC
Ennuste voimassa 23. päivästä klo 18 UTC - 24. päivään klo 24 UTC
Tuuli 10 kn luoteesta
Näkyvyys 10 km tai enemmän
ei pilviä alle 1500 m:ssä eikä cumulonimbus-pilviä
Ajoittain
23. päivästä klo 18 UTC - 24. päivään klo 03 UTC
Tuuli 19 kn lännestä
Tulossa
24. päivästä klo 03 UTC - 24. päivään klo 05 UTC
Tuuli 10 kn kaakosta

TAF: OIII 231730Z 2318/2424 32005MPS CAVOK TEMPO 2318/2403 28010MPS BECMG 2403/2405 14005MPS

Säähavainnot ja -ennusteet yli 4000 lentoasemalta (METAR- ja TAF-raportit).

Käytössä olevat sääasemat on merkitty karttaan keltaisilla ja punaisilla pisteillä.

Aseta hiiri pisteen päälle nähdäksesi sääaseman nimen.

Klikkaa sitten nähdäksesi säähavainnot ja -ennusteet.

Kartan vaihtaminen: klikkaa mustalla rastilla varustettuja vihreitä pisteitä, niin voit zoomata sisään; viivalla varustettua vihreää pistettä, niin voit zoomata ulos tai vihreitä nuolia, niin pääset viereisille kartoille.


METAR-TAF: